Terminal Aerodrome Forecast
Issued by NWS Austin/San Antonio, TX

Home | Current Version | Previous Version | Text Only | Print | Product List | Glossary On
Versions: 1 2 3 4 5 6 7 8 9 10 11 12 13 14 15 16 17 18 19 20 21 22
000
FTUS44 KEWX 191100
TAFSAT
TAF
KSAT 191138Z 1912/2018 01008KT 5SM -DZ BR OVC007
     FM191400 02010KT 6SM BR VCSH OVC007
     FM191800 02008KT P6SM OVC015
     FM192100 36008KT P6SM OVC025
     FM200600 01007KT 5SM BR OVC007
     FM201000 36005KT 2SM BR OVC003
     FM201600 36005KT 5SM BR OVC012=

USA.gov is the U.S. government's official web portal to all federal, state and local government web resources and services.